sensor_id;sensor_type;location;lat;lon;timestamp;P1;durP1;ratioP1;P2;durP2;ratioP2
75785;SDS011;64402;44.708;37.644;2023-07-24T00:01:39;5.88;;;2.00;;
75785;SDS011;64402;44.708;37.644;2023-07-24T00:04:05;8.55;;;2.33;;
75785;SDS011;64402;44.708;37.644;2023-07-24T00:06:31;7.13;;;2.30;;
75785;SDS011;64402;44.708;37.644;2023-07-24T00:08:57;6.32;;;2.65;;
75785;SDS011;64402;44.708;37.644;2023-07-24T00:11:23;5.80;;;2.50;;
75785;SDS011;64402;44.708;37.644;2023-07-24T00:13:49;5.90;;;2.28;;
75785;SDS011;64402;44.708;37.644;2023-07-24T00:16:15;4.30;;;2.10;;
75785;SDS011;64402;44.708;37.644;2023-07-24T00:18:41;8.25;;;2.58;;
75785;SDS011;64402;44.708;37.644;2023-07-24T00:21:08;6.78;;;2.45;;
75785;SDS011;64402;44.708;37.644;2023-07-24T00:23:34;6.18;;;2.20;;
75785;SDS011;64402;44.708;37.644;2023-07-24T00:26:00;5.45;;;2.53;;
75785;SDS011;64402;44.708;37.644;2023-07-24T00:28:26;5.20;;;2.25;;
75785;SDS011;64402;44.708;37.644;2023-07-24T00:30:52;7.05;;;2.50;;
75785;SDS011;64402;44.708;37.644;2023-07-24T00:33:18;6.00;;;2.47;;
75785;SDS011;64402;44.708;37.644;2023-07-24T00:35:44;6.18;;;2.67;;
75785;SDS011;64402;44.708;37.644;2023-07-24T00:38:10;5.30;;;2.33;;
75785;SDS011;64402;44.708;37.644;2023-07-24T00:40:37;7.78;;;2.53;;
75785;SDS011;64402;44.708;37.644;2023-07-24T00:43:03;5.55;;;2.30;;
75785;SDS011;64402;44.708;37.644;2023-07-24T00:45:29;5.13;;;2.50;;
75785;SDS011;64402;44.708;37.644;2023-07-24T00:47:55;5.57;;;2.60;;
75785;SDS011;64402;44.708;37.644;2023-07-24T00:50:21;9.48;;;3.17;;
75785;SDS011;64402;44.708;37.644;2023-07-24T00:52:48;6.35;;;2.50;;
75785;SDS011;64402;44.708;37.644;2023-07-24T00:55:14;6.32;;;2.90;;
75785;SDS011;64402;44.708;37.644;2023-07-24T01:00:08;7.15;;;2.92;;
75785;SDS011;64402;44.708;37.644;2023-07-24T01:02:34;5.65;;;2.65;;
75785;SDS011;64402;44.708;37.644;2023-07-24T01:05:01;8.65;;;2.85;;
75785;SDS011;64402;44.708;37.644;2023-07-24T01:07:27;5.22;;;2.40;;
75785;SDS011;64402;44.708;37.644;2023-07-24T01:09:53;5.93;;;2.72;;
75785;SDS011;64402;44.708;37.644;2023-07-24T01:15:05;7.13;;;3.00;;
75785;SDS011;64402;44.708;37.644;2023-07-24T01:17:42;7.10;;;3.00;;
75785;SDS011;64402;44.708;37.644;2023-07-24T01:20:13;8.48;;;2.83;;
75785;SDS011;64402;44.708;37.644;2023-07-24T01:22:48;6.60;;;2.80;;
75785;SDS011;64402;44.708;37.644;2023-07-24T01:25:46;6.40;;;3.25;;
75785;SDS011;64402;44.708;37.644;2023-07-24T01:28:20;9.43;;;3.53;;
75785;SDS011;64402;44.708;37.644;2023-07-24T01:30:46;6.80;;;3.60;;
75785;SDS011;64402;44.708;37.644;2023-07-24T01:33:12;7.28;;;3.60;;
75785;SDS011;64402;44.708;37.644;2023-07-24T01:35:40;12.57;;;4.10;;
75785;SDS011;64402;44.708;37.644;2023-07-24T01:38:09;8.18;;;3.95;;
75785;SDS011;64402;44.708;37.644;2023-07-24T01:40:41;7.55;;;3.90;;
75785;SDS011;64402;44.708;37.644;2023-07-24T01:43:08;8.43;;;4.25;;
75785;SDS011;64402;44.708;37.644;2023-07-24T01:45:35;7.78;;;4.30;;
75785;SDS011;64402;44.708;37.644;2023-07-24T01:48:02;9.25;;;4.50;;
75785;SDS011;64402;44.708;37.644;2023-07-24T01:50:30;11.95;;;4.57;;
75785;SDS011;64402;44.708;37.644;2023-07-24T01:52:56;9.35;;;4.30;;
75785;SDS011;64402;44.708;37.644;2023-07-24T01:55:22;10.15;;;4.20;;
75785;SDS011;64402;44.708;37.644;2023-07-24T01:57:48;7.20;;;4.10;;
75785;SDS011;64402;44.708;37.644;2023-07-24T02:00:14;10.95;;;4.75;;
75785;SDS011;64402;44.708;37.644;2023-07-24T02:02:40;10.85;;;4.80;;
75785;SDS011;64402;44.708;37.644;2023-07-24T02:05:07;14.30;;;4.80;;
75785;SDS011;64402;44.708;37.644;2023-07-24T02:07:33;7.90;;;4.13;;
75785;SDS011;64402;44.708;37.644;2023-07-24T02:09:59;8.90;;;4.53;;
75785;SDS011;64402;44.708;37.644;2023-07-24T02:12:25;9.23;;;4.90;;
75785;SDS011;64402;44.708;37.644;2023-07-24T02:14:51;11.25;;;5.35;;
75785;SDS011;64402;44.708;37.644;2023-07-24T02:17:18;11.52;;;5.38;;
75785;SDS011;64402;44.708;37.644;2023-07-24T02:19:44;11.60;;;5.65;;
75785;SDS011;64402;44.708;37.644;2023-07-24T02:22:11;15.13;;;6.13;;
75785;SDS011;64402;44.708;37.644;2023-07-24T02:24:37;13.27;;;5.82;;
75785;SDS011;64402;44.708;37.644;2023-07-24T02:27:04;12.73;;;7.88;;
75785;SDS011;64402;44.708;37.644;2023-07-24T02:29:31;11.23;;;6.28;;
75785;SDS011;64402;44.708;37.644;2023-07-24T02:31:57;11.05;;;5.20;;
75785;SDS011;64402;44.708;37.644;2023-07-24T02:34:24;10.10;;;5.15;;
75785;SDS011;64402;44.708;37.644;2023-07-24T02:36:52;9.82;;;5.53;;
75785;SDS011;64402;44.708;37.644;2023-07-24T02:39:19;9.75;;;5.07;;
75785;SDS011;64402;44.708;37.644;2023-07-24T02:41:45;10.95;;;5.13;;
75785;SDS011;64402;44.708;37.644;2023-07-24T02:44:13;17.98;;;5.90;;
75785;SDS011;64402;44.708;37.644;2023-07-24T02:46:39;12.45;;;5.40;;
75785;SDS011;64402;44.708;37.644;2023-07-24T02:49:06;10.90;;;5.53;;
75785;SDS011;64402;44.708;37.644;2023-07-24T02:51:32;10.57;;;5.28;;
75785;SDS011;64402;44.708;37.644;2023-07-24T02:53:59;12.00;;;5.60;;
75785;SDS011;64402;44.708;37.644;2023-07-24T02:58:51;9.05;;;4.80;;
75785;SDS011;64402;44.708;37.644;2023-07-24T03:01:17;9.38;;;5.00;;
75785;SDS011;64402;44.708;37.644;2023-07-24T03:03:43;12.80;;;5.25;;
75785;SDS011;64402;44.708;37.644;2023-07-24T03:06:09;9.95;;;5.35;;
75785;SDS011;64402;44.708;37.644;2023-07-24T03:08:36;12.50;;;5.00;;
75785;SDS011;64402;44.708;37.644;2023-07-24T03:11:04;13.80;;;5.45;;
75785;SDS011;64402;44.708;37.644;2023-07-24T03:13:30;16.15;;;5.60;;
75785;SDS011;64402;44.708;37.644;2023-07-24T03:15:57;11.88;;;5.35;;
75785;SDS011;64402;44.708;37.644;2023-07-24T03:18:24;11.18;;;5.30;;
75785;SDS011;64402;44.708;37.644;2023-07-24T03:20:50;9.93;;;4.93;;
75785;SDS011;64402;44.708;37.644;2023-07-24T03:23:17;8.63;;;4.70;;
75785;SDS011;64402;44.708;37.644;2023-07-24T03:25:43;8.07;;;4.35;;
75785;SDS011;64402;44.708;37.644;2023-07-24T03:28:09;9.70;;;5.18;;
75785;SDS011;64402;44.708;37.644;2023-07-24T03:30:36;10.70;;;5.40;;
75785;SDS011;64402;44.708;37.644;2023-07-24T03:33:02;11.07;;;4.82;;
75785;SDS011;64402;44.708;37.644;2023-07-24T03:35:28;10.15;;;4.80;;
75785;SDS011;64402;44.708;37.644;2023-07-24T03:37:54;9.60;;;4.10;;
75785;SDS011;64402;44.708;37.644;2023-07-24T03:40:20;8.18;;;4.45;;
75785;SDS011;64402;44.708;37.644;2023-07-24T03:42:46;8.68;;;4.22;;
75785;SDS011;64402;44.708;37.644;2023-07-24T03:45:12;8.63;;;4.22;;
75785;SDS011;64402;44.708;37.644;2023-07-24T03:47:38;10.18;;;4.20;;
75785;SDS011;64402;44.708;37.644;2023-07-24T03:50:04;7.95;;;4.00;;
75785;SDS011;64402;44.708;37.644;2023-07-24T03:52:31;12.30;;;4.18;;
75785;SDS011;64402;44.708;37.644;2023-07-24T03:54:57;9.10;;;3.85;;
75785;SDS011;64402;44.708;37.644;2023-07-24T03:57:23;12.90;;;4.85;;
75785;SDS011;64402;44.708;37.644;2023-07-24T03:59:49;10.88;;;4.22;;
75785;SDS011;64402;44.708;37.644;2023-07-24T04:03:18;7.57;;;3.85;;
75785;SDS011;64402;44.708;37.644;2023-07-24T04:05:46;10.50;;;4.20;;
75785;SDS011;64402;44.708;37.644;2023-07-24T04:08:13;10.52;;;4.70;;
75785;SDS011;64402;44.708;37.644;2023-07-24T04:10:39;9.13;;;3.95;;
75785;SDS011;64402;44.708;37.644;2023-07-24T04:13:05;7.40;;;3.90;;
75785;SDS011;64402;44.708;37.644;2023-07-24T04:15:31;9.43;;;4.18;;
75785;SDS011;64402;44.708;37.644;2023-07-24T04:17:57;19.17;;;3.75;;
75785;SDS011;64402;44.708;37.644;2023-07-24T04:20:23;10.63;;;3.78;;
75785;SDS011;64402;44.708;37.644;2023-07-24T04:22:49;8.80;;;3.85;;
75785;SDS011;64402;44.708;37.644;2023-07-24T04:25:16;7.82;;;3.65;;
75785;SDS011;64402;44.708;37.644;2023-07-24T04:27:42;9.93;;;3.90;;
75785;SDS011;64402;44.708;37.644;2023-07-24T04:30:08;8.15;;;4.10;;
75785;SDS011;64402;44.708;37.644;2023-07-24T04:32:34;10.30;;;3.85;;
75785;SDS011;64402;44.708;37.644;2023-07-24T04:35:01;10.30;;;3.60;;
75785;SDS011;64402;44.708;37.644;2023-07-24T04:37:27;9.00;;;3.58;;
75785;SDS011;64402;44.708;37.644;2023-07-24T04:39:53;7.20;;;3.03;;
75785;SDS011;64402;44.708;37.644;2023-07-24T04:42:20;10.98;;;3.25;;
75785;SDS011;64402;44.708;37.644;2023-07-24T04:44:46;7.65;;;3.50;;
75785;SDS011;64402;44.708;37.644;2023-07-24T04:47:12;10.77;;;3.17;;
75785;SDS011;64402;44.708;37.644;2023-07-24T04:49:39;6.88;;;3.33;;
75785;SDS011;64402;44.708;37.644;2023-07-24T04:52:05;7.03;;;3.42;;
75785;SDS011;64402;44.708;37.644;2023-07-24T04:54:31;9.13;;;3.50;;
75785;SDS011;64402;44.708;37.644;2023-07-24T04:56:57;7.85;;;3.67;;
75785;SDS011;64402;44.708;37.644;2023-07-24T04:59:23;6.97;;;3.17;;
75785;SDS011;64402;44.708;37.644;2023-07-24T05:01:49;10.13;;;3.20;;
75785;SDS011;64402;44.708;37.644;2023-07-24T05:04:16;6.35;;;3.13;;
75785;SDS011;64402;44.708;37.644;2023-07-24T05:06:42;6.97;;;3.00;;
75785;SDS011;64402;44.708;37.644;2023-07-24T05:09:08;15.40;;;4.30;;
75785;SDS011;64402;44.708;37.644;2023-07-24T05:11:34;8.00;;;2.88;;
75785;SDS011;64402;44.708;37.644;2023-07-24T05:14:00;5.82;;;2.83;;
75785;SDS011;64402;44.708;37.644;2023-07-24T05:16:26;6.35;;;3.08;;
75785;SDS011;64402;44.708;37.644;2023-07-24T05:18:52;7.75;;;3.42;;
75785;SDS011;64402;44.708;37.644;2023-07-24T05:21:18;7.68;;;2.92;;
75785;SDS011;64402;44.708;37.644;2023-07-24T05:23:44;6.18;;;3.00;;
75785;SDS011;64402;44.708;37.644;2023-07-24T05:26:11;16.95;;;3.78;;
75785;SDS011;64402;44.708;37.644;2023-07-24T05:28:37;7.10;;;3.20;;
75785;SDS011;64402;44.708;37.644;2023-07-24T05:31:03;12.38;;;3.08;;
75785;SDS011;64402;44.708;37.644;2023-07-24T05:35:57;13.32;;;2.90;;
75785;SDS011;64402;44.708;37.644;2023-07-24T05:38:24;9.20;;;2.75;;
75785;SDS011;64402;44.708;37.644;2023-07-24T05:40:55;6.07;;;2.60;;
75785;SDS011;64402;44.708;37.644;2023-07-24T05:43:26;7.95;;;2.28;;
75785;SDS011;64402;44.708;37.644;2023-07-24T05:45:53;8.30;;;2.50;;
75785;SDS011;64402;44.708;37.644;2023-07-24T05:48:20;6.82;;;2.60;;
75785;SDS011;64402;44.708;37.644;2023-07-24T05:50:46;8.55;;;3.05;;
75785;SDS011;64402;44.708;37.644;2023-07-24T05:53:13;6.80;;;2.80;;
75785;SDS011;64402;44.708;37.644;2023-07-24T05:55:40;7.70;;;2.17;;
75785;SDS011;64402;44.708;37.644;2023-07-24T05:58:06;7.10;;;2.53;;
75785;SDS011;64402;44.708;37.644;2023-07-24T06:00:32;10.30;;;2.83;;
75785;SDS011;64402;44.708;37.644;2023-07-24T06:02:58;6.05;;;2.30;;
75785;SDS011;64402;44.708;37.644;2023-07-24T06:05:24;9.93;;;2.25;;
75785;SDS011;64402;44.708;37.644;2023-07-24T06:07:50;6.63;;;2.42;;
75785;SDS011;64402;44.708;37.644;2023-07-24T06:10:16;5.07;;;1.85;;
75785;SDS011;64402;44.708;37.644;2023-07-24T06:12:42;6.25;;;1.90;;
75785;SDS011;64402;44.708;37.644;2023-07-24T06:15:09;5.60;;;2.10;;
75785;SDS011;64402;44.708;37.644;2023-07-24T06:17:35;5.15;;;2.03;;
75785;SDS011;64402;44.708;37.644;2023-07-24T06:20:01;5.93;;;2.00;;
75785;SDS011;64402;44.708;37.644;2023-07-24T06:22:27;4.75;;;1.90;;
75785;SDS011;64402;44.708;37.644;2023-07-24T06:24:54;5.43;;;1.85;;
75785;SDS011;64402;44.708;37.644;2023-07-24T06:27:20;5.93;;;2.08;;
75785;SDS011;64402;44.708;37.644;2023-07-24T06:29:46;5.10;;;1.88;;
75785;SDS011;64402;44.708;37.644;2023-07-24T06:32:12;4.68;;;1.70;;
75785;SDS011;64402;44.708;37.644;2023-07-24T06:34:38;6.32;;;1.70;;
75785;SDS011;64402;44.708;37.644;2023-07-24T06:37:04;4.45;;;1.88;;
75785;SDS011;64402;44.708;37.644;2023-07-24T06:39:30;5.72;;;1.65;;
75785;SDS011;64402;44.708;37.644;2023-07-24T06:41:56;6.00;;;1.73;;
75785;SDS011;64402;44.708;37.644;2023-07-24T06:44:22;6.50;;;1.75;;
75785;SDS011;64402;44.708;37.644;2023-07-24T06:46:48;4.57;;;1.60;;
75785;SDS011;64402;44.708;37.644;2023-07-24T06:49:14;3.90;;;1.50;;
75785;SDS011;64402;44.708;37.644;2023-07-24T06:51:40;5.85;;;1.60;;
75785;SDS011;64402;44.708;37.644;2023-07-24T06:54:06;7.95;;;1.83;;
75785;SDS011;64402;44.708;37.644;2023-07-24T06:56:32;4.20;;;1.52;;
75785;SDS011;64402;44.708;37.644;2023-07-24T06:58:59;4.63;;;1.52;;
75785;SDS011;64402;44.708;37.644;2023-07-24T07:01:25;4.13;;;1.50;;
75785;SDS011;64402;44.708;37.644;2023-07-24T07:03:51;4.20;;;1.63;;
75785;SDS011;64402;44.708;37.644;2023-07-24T07:06:17;4.43;;;1.70;;
75785;SDS011;64402;44.708;37.644;2023-07-24T07:08:43;8.68;;;1.55;;
75785;SDS011;64402;44.708;37.644;2023-07-24T07:11:09;4.30;;;1.50;;
75785;SDS011;64402;44.708;37.644;2023-07-24T07:13:36;6.57;;;1.90;;
75785;SDS011;64402;44.708;37.644;2023-07-24T07:16:02;4.68;;;1.50;;
75785;SDS011;64402;44.708;37.644;2023-07-24T07:18:28;4.30;;;1.38;;
75785;SDS011;64402;44.708;37.644;2023-07-24T07:20:54;11.75;;;1.63;;
75785;SDS011;64402;44.708;37.644;2023-07-24T07:23:20;7.55;;;1.63;;
75785;SDS011;64402;44.708;37.644;2023-07-24T07:25:47;5.78;;;1.65;;
75785;SDS011;64402;44.708;37.644;2023-07-24T07:28:15;3.65;;;1.40;;
75785;SDS011;64402;44.708;37.644;2023-07-24T07:33:08;3.95;;;1.50;;
75785;SDS011;64402;44.708;37.644;2023-07-24T07:35:35;5.95;;;1.67;;
75785;SDS011;64402;44.708;37.644;2023-07-24T07:38:02;4.50;;;1.55;;
75785;SDS011;64402;44.708;37.644;2023-07-24T07:42:55;4.32;;;1.45;;
75785;SDS011;64402;44.708;37.644;2023-07-24T07:45:22;4.07;;;1.30;;
75785;SDS011;64402;44.708;37.644;2023-07-24T07:52:41;4.90;;;1.38;;
75785;SDS011;64402;44.708;37.644;2023-07-24T07:55:07;4.50;;;1.30;;
75785;SDS011;64402;44.708;37.644;2023-07-24T07:57:34;5.68;;;1.35;;
75785;SDS011;64402;44.708;37.644;2023-07-24T08:00:02;5.65;;;1.67;;
75785;SDS011;64402;44.708;37.644;2023-07-24T08:02:28;7.82;;;1.50;;
75785;SDS011;64402;44.708;37.644;2023-07-24T08:04:54;3.40;;;1.33;;
75785;SDS011;64402;44.708;37.644;2023-07-24T08:07:21;6.95;;;1.58;;
75785;SDS011;64402;44.708;37.644;2023-07-24T08:09:47;4.10;;;1.40;;
75785;SDS011;64402;44.708;37.644;2023-07-24T08:12:13;7.97;;;1.73;;
75785;SDS011;64402;44.708;37.644;2023-07-24T08:14:39;5.05;;;1.55;;
75785;SDS011;64402;44.708;37.644;2023-07-24T08:17:05;4.03;;;1.52;;
75785;SDS011;64402;44.708;37.644;2023-07-24T08:19:31;4.32;;;1.40;;
75785;SDS011;64402;44.708;37.644;2023-07-24T08:21:57;4.40;;;1.58;;
75785;SDS011;64402;44.708;37.644;2023-07-24T08:24:24;5.18;;;1.40;;
75785;SDS011;64402;44.708;37.644;2023-07-24T08:26:50;4.72;;;1.67;;
75785;SDS011;64402;44.708;37.644;2023-07-24T08:29:16;3.63;;;1.48;;
75785;SDS011;64402;44.708;37.644;2023-07-24T08:31:42;3.47;;;1.55;;
75785;SDS011;64402;44.708;37.644;2023-07-24T08:34:08;5.72;;;2.17;;
75785;SDS011;64402;44.708;37.644;2023-07-24T08:36:34;4.07;;;1.40;;
75785;SDS011;64402;44.708;37.644;2023-07-24T08:39:03;3.08;;;1.23;;
75785;SDS011;64402;44.708;37.644;2023-07-24T08:41:29;5.15;;;1.70;;
75785;SDS011;64402;44.708;37.644;2023-07-24T08:43:57;9.80;;;1.67;;
75785;SDS011;64402;44.708;37.644;2023-07-24T08:46:24;4.20;;;1.58;;
75785;SDS011;64402;44.708;37.644;2023-07-24T08:48:50;5.95;;;1.35;;
75785;SDS011;64402;44.708;37.644;2023-07-24T08:51:17;6.70;;;1.40;;
75785;SDS011;64402;44.708;37.644;2023-07-24T08:53:45;4.53;;;1.60;;
75785;SDS011;64402;44.708;37.644;2023-07-24T08:56:12;5.68;;;1.80;;
75785;SDS011;64402;44.708;37.644;2023-07-24T08:58:39;5.78;;;1.52;;
75785;SDS011;64402;44.708;37.644;2023-07-24T09:01:06;4.22;;;1.50;;
75785;SDS011;64402;44.708;37.644;2023-07-24T09:03:34;4.38;;;1.63;;
75785;SDS011;64402;44.708;37.644;2023-07-24T09:06:01;3.05;;;1.40;;
75785;SDS011;64402;44.708;37.644;2023-07-24T09:11:00;3.67;;;1.60;;
75785;SDS011;64402;44.708;37.644;2023-07-24T09:13:27;5.15;;;1.88;;
75785;SDS011;64402;44.708;37.644;2023-07-24T09:18:20;13.20;;;2.33;;
75785;SDS011;64402;44.708;37.644;2023-07-24T09:20:47;5.35;;;2.10;;
75785;SDS011;64402;44.708;37.644;2023-07-24T09:23:14;5.43;;;2.05;;
75785;SDS011;64402;44.708;37.644;2023-07-24T09:25:41;5.38;;;1.92;;
75785;SDS011;64402;44.708;37.644;2023-07-24T09:28:09;4.95;;;2.25;;
75785;SDS011;64402;44.708;37.644;2023-07-24T09:30:36;4.95;;;2.17;;
75785;SDS011;64402;44.708;37.644;2023-07-24T09:33:03;6.00;;;1.98;;
75785;SDS011;64402;44.708;37.644;2023-07-24T09:35:29;4.72;;;1.98;;
75785;SDS011;64402;44.708;37.644;2023-07-24T09:38:06;6.00;;;2.08;;
75785;SDS011;64402;44.708;37.644;2023-07-24T09:40:43;4.80;;;1.90;;
75785;SDS011;64402;44.708;37.644;2023-07-24T09:43:16;79.35;;;4.47;;
75785;SDS011;64402;44.708;37.644;2023-07-24T09:45:43;6.05;;;2.00;;
75785;SDS011;64402;44.708;37.644;2023-07-24T09:48:13;5.47;;;1.85;;
75785;SDS011;64402;44.708;37.644;2023-07-24T09:50:41;6.57;;;2.38;;
75785;SDS011;64402;44.708;37.644;2023-07-24T09:56:10;7.78;;;1.90;;
75785;SDS011;64402;44.708;37.644;2023-07-24T09:58:37;5.97;;;2.00;;
75785;SDS011;64402;44.708;37.644;2023-07-24T10:01:05;5.18;;;1.80;;
75785;SDS011;64402;44.708;37.644;2023-07-24T10:03:37;12.07;;;2.22;;
75785;SDS011;64402;44.708;37.644;2023-07-24T10:08:31;4.68;;;2.13;;
75785;SDS011;64402;44.708;37.644;2023-07-24T10:11:00;4.35;;;1.88;;
75785;SDS011;64402;44.708;37.644;2023-07-24T10:13:26;18.50;;;2.40;;
75785;SDS011;64402;44.708;37.644;2023-07-24T10:15:54;7.72;;;1.95;;
75785;SDS011;64402;44.708;37.644;2023-07-24T10:18:26;10.40;;;2.38;;
75785;SDS011;64402;44.708;37.644;2023-07-24T10:21:26;7.85;;;1.67;;
75785;SDS011;64402;44.708;37.644;2023-07-24T10:23:51;11.23;;;2.35;;
75785;SDS011;64402;44.708;37.644;2023-07-24T10:28:49;4.57;;;2.08;;
75785;SDS011;64402;44.708;37.644;2023-07-24T10:31:25;4.95;;;1.80;;
75785;SDS011;64402;44.708;37.644;2023-07-24T10:33:53;5.82;;;1.80;;
75785;SDS011;64402;44.708;37.644;2023-07-24T10:36:21;6.45;;;2.00;;
75785;SDS011;64402;44.708;37.644;2023-07-24T10:38:52;7.55;;;2.08;;
75785;SDS011;64402;44.708;37.644;2023-07-24T10:41:19;8.05;;;2.30;;
75785;SDS011;64402;44.708;37.644;2023-07-24T10:46:17;7.25;;;2.10;;
75785;SDS011;64402;44.708;37.644;2023-07-24T10:48:45;8.93;;;2.00;;
75785;SDS011;64402;44.708;37.644;2023-07-24T10:51:16;7.00;;;1.90;;
75785;SDS011;64402;44.708;37.644;2023-07-24T10:56:12;14.38;;;2.55;;
75785;SDS011;64402;44.708;37.644;2023-07-24T10:58:39;7.82;;;2.03;;
75785;SDS011;64402;44.708;37.644;2023-07-24T11:01:05;7.85;;;2.15;;
75785;SDS011;64402;44.708;37.644;2023-07-24T11:03:32;6.30;;;1.90;;
75785;SDS011;64402;44.708;37.644;2023-07-24T11:06:02;7.45;;;2.33;;
75785;SDS011;64402;44.708;37.644;2023-07-24T11:08:28;5.20;;;1.90;;
75785;SDS011;64402;44.708;37.644;2023-07-24T11:10:56;3.47;;;1.60;;
75785;SDS011;64402;44.708;37.644;2023-07-24T11:13:24;4.93;;;1.90;;
75785;SDS011;64402;44.708;37.644;2023-07-24T11:15:52;4.32;;;2.00;;
75785;SDS011;64402;44.708;37.644;2023-07-24T11:18:19;6.72;;;2.30;;
75785;SDS011;64402;44.708;37.644;2023-07-24T11:20:48;8.70;;;2.03;;
75785;SDS011;64402;44.708;37.644;2023-07-24T11:23:16;4.78;;;1.70;;
75785;SDS011;64402;44.708;37.644;2023-07-24T11:25:43;5.93;;;1.88;;
75785;SDS011;64402;44.708;37.644;2023-07-24T11:28:11;4.07;;;1.52;;
75785;SDS011;64402;44.708;37.644;2023-07-24T11:30:38;6.40;;;1.98;;
75785;SDS011;64402;44.708;37.644;2023-07-24T11:33:05;4.15;;;1.48;;
75785;SDS011;64402;44.708;37.644;2023-07-24T11:35:33;4.35;;;1.55;;
75785;SDS011;64402;44.708;37.644;2023-07-24T11:38:01;7.57;;;1.90;;
75785;SDS011;64402;44.708;37.644;2023-07-24T11:40:34;4.70;;;1.77;;
75785;SDS011;64402;44.708;37.644;2023-07-24T11:43:02;6.15;;;2.10;;
75785;SDS011;64402;44.708;37.644;2023-07-24T11:45:29;4.47;;;1.70;;
75785;SDS011;64402;44.708;37.644;2023-07-24T11:47:56;4.53;;;1.83;;
75785;SDS011;64402;44.708;37.644;2023-07-24T11:50:23;5.25;;;1.80;;
75785;SDS011;64402;44.708;37.644;2023-07-24T11:52:50;4.18;;;1.58;;
75785;SDS011;64402;44.708;37.644;2023-07-24T11:55:18;5.32;;;1.83;;
75785;SDS011;64402;44.708;37.644;2023-07-24T11:57:58;4.43;;;1.98;;
75785;SDS011;64402;44.708;37.644;2023-07-24T12:00:26;5.35;;;1.60;;
75785;SDS011;64402;44.708;37.644;2023-07-24T12:02:55;9.50;;;2.17;;
75785;SDS011;64402;44.708;37.644;2023-07-24T12:05:36;3.95;;;1.80;;
75785;SDS011;64402;44.708;37.644;2023-07-24T12:08:07;5.65;;;1.80;;
75785;SDS011;64402;44.708;37.644;2023-07-24T12:10:36;5.68;;;2.33;;
75785;SDS011;64402;44.708;37.644;2023-07-24T12:13:03;5.60;;;1.83;;
75785;SDS011;64402;44.708;37.644;2023-07-24T12:15:30;4.60;;;1.75;;
75785;SDS011;64402;44.708;37.644;2023-07-24T12:17:59;6.00;;;1.60;;
75785;SDS011;64402;44.708;37.644;2023-07-24T12:20:26;5.38;;;1.50;;
75785;SDS011;64402;44.708;37.644;2023-07-24T12:22:53;5.60;;;1.90;;
75785;SDS011;64402;44.708;37.644;2023-07-24T12:25:19;5.03;;;1.77;;
75785;SDS011;64402;44.708;37.644;2023-07-24T12:30:15;6.75;;;1.63;;
75785;SDS011;64402;44.708;37.644;2023-07-24T12:32:41;6.15;;;1.80;;
75785;SDS011;64402;44.708;37.644;2023-07-24T12:35:07;27.38;;;2.25;;
75785;SDS011;64402;44.708;37.644;2023-07-24T12:37:35;8.40;;;1.98;;
75785;SDS011;64402;44.708;37.644;2023-07-24T12:40:01;6.70;;;2.00;;
75785;SDS011;64402;44.708;37.644;2023-07-24T12:42:27;9.02;;;2.00;;
75785;SDS011;64402;44.708;37.644;2023-07-24T12:44:54;4.28;;;1.70;;
75785;SDS011;64402;44.708;37.644;2023-07-24T12:47:20;4.72;;;1.80;;
75785;SDS011;64402;44.708;37.644;2023-07-24T12:49:46;5.60;;;1.75;;
75785;SDS011;64402;44.708;37.644;2023-07-24T12:54:38;8.45;;;2.03;;
75785;SDS011;64402;44.708;37.644;2023-07-24T12:57:04;4.57;;;1.90;;
75785;SDS011;64402;44.708;37.644;2023-07-24T12:59:31;6.95;;;1.70;;
75785;SDS011;64402;44.708;37.644;2023-07-24T13:01:57;3.90;;;1.70;;
75785;SDS011;64402;44.708;37.644;2023-07-24T13:04:23;4.85;;;1.75;;
75785;SDS011;64402;44.708;37.644;2023-07-24T13:06:49;6.22;;;1.98;;
75785;SDS011;64402;44.708;37.644;2023-07-24T13:11:41;3.67;;;1.50;;
75785;SDS011;64402;44.708;37.644;2023-07-24T13:14:07;5.53;;;1.70;;
75785;SDS011;64402;44.708;37.644;2023-07-24T13:16:34;8.73;;;2.00;;
75785;SDS011;64402;44.708;37.644;2023-07-24T13:19:00;3.95;;;1.55;;
75785;SDS011;64402;44.708;37.644;2023-07-24T13:21:26;3.67;;;1.60;;
75785;SDS011;64402;44.708;37.644;2023-07-24T13:26:18;8.32;;;1.70;;
75785;SDS011;64402;44.708;37.644;2023-07-24T13:28:45;6.80;;;1.42;;
75785;SDS011;64402;44.708;37.644;2023-07-24T13:31:14;4.45;;;1.45;;
75785;SDS011;64402;44.708;37.644;2023-07-24T13:33:42;4.97;;;1.50;;
75785;SDS011;64402;44.708;37.644;2023-07-24T13:36:08;4.35;;;1.30;;
75785;SDS011;64402;44.708;37.644;2023-07-24T13:41:01;3.22;;;1.30;;
75785;SDS011;64402;44.708;37.644;2023-07-24T13:43:28;5.30;;;1.50;;
75785;SDS011;64402;44.708;37.644;2023-07-24T13:45:54;6.75;;;1.50;;
75785;SDS011;64402;44.708;37.644;2023-07-24T13:48:21;6.28;;;1.33;;
75785;SDS011;64402;44.708;37.644;2023-07-24T13:50:47;3.55;;;1.17;;
75785;SDS011;64402;44.708;37.644;2023-07-24T13:53:13;5.43;;;1.23;;
75785;SDS011;64402;44.708;37.644;2023-07-24T13:55:39;3.72;;;1.10;;
75785;SDS011;64402;44.708;37.644;2023-07-24T13:58:05;4.18;;;1.30;;
75785;SDS011;64402;44.708;37.644;2023-07-24T14:00:31;2.80;;;1.10;;
75785;SDS011;64402;44.708;37.644;2023-07-24T14:02:57;12.73;;;1.40;;
75785;SDS011;64402;44.708;37.644;2023-07-24T14:05:24;4.38;;;1.48;;
75785;SDS011;64402;44.708;37.644;2023-07-24T14:07:50;3.92;;;1.20;;
75785;SDS011;64402;44.708;37.644;2023-07-24T14:10:16;2.55;;;0.98;;
75785;SDS011;64402;44.708;37.644;2023-07-24T14:12:42;5.68;;;1.33;;
75785;SDS011;64402;44.708;37.644;2023-07-24T14:15:08;4.32;;;1.30;;
75785;SDS011;64402;44.708;37.644;2023-07-24T14:17:35;4.88;;;1.10;;
75785;SDS011;64402;44.708;37.644;2023-07-24T14:20:02;4.97;;;1.38;;
75785;SDS011;64402;44.708;37.644;2023-07-24T14:22:28;2.92;;;1.10;;
75785;SDS011;64402;44.708;37.644;2023-07-24T14:27:21;4.13;;;1.00;;
75785;SDS011;64402;44.708;37.644;2023-07-24T14:29:47;3.28;;;1.13;;
75785;SDS011;64402;44.708;37.644;2023-07-24T14:32:13;11.43;;;1.40;;
75785;SDS011;64402;44.708;37.644;2023-07-24T14:34:41;4.35;;;1.10;;
75785;SDS011;64402;44.708;37.644;2023-07-24T14:37:07;8.23;;;1.10;;
75785;SDS011;64402;44.708;37.644;2023-07-24T14:39:33;3.38;;;1.10;;
75785;SDS011;64402;44.708;37.644;2023-07-24T14:44:26;4.18;;;1.13;;
75785;SDS011;64402;44.708;37.644;2023-07-24T14:46:52;2.88;;;0.95;;
75785;SDS011;64402;44.708;37.644;2023-07-24T14:49:18;5.22;;;1.00;;
75785;SDS011;64402;44.708;37.644;2023-07-24T14:51:44;3.40;;;0.95;;
75785;SDS011;64402;44.708;37.644;2023-07-24T14:54:10;3.70;;;0.98;;
75785;SDS011;64402;44.708;37.644;2023-07-24T14:56:36;3.20;;;0.77;;
75785;SDS011;64402;44.708;37.644;2023-07-24T14:59:02;3.13;;;1.00;;
75785;SDS011;64402;44.708;37.644;2023-07-24T15:01:28;2.58;;;0.88;;
75785;SDS011;64402;44.708;37.644;2023-07-24T15:03:57;1.75;;;0.82;;
75785;SDS011;64402;44.708;37.644;2023-07-24T15:06:24;2.88;;;0.85;;
75785;SDS011;64402;44.708;37.644;2023-07-24T15:08:50;3.17;;;1.08;;
75785;SDS011;64402;44.708;37.644;2023-07-24T15:11:21;4.70;;;1.00;;
75785;SDS011;64402;44.708;37.644;2023-07-24T15:13:48;2.33;;;0.90;;
75785;SDS011;64402;44.708;37.644;2023-07-24T15:16:15;3.28;;;0.90;;
75785;SDS011;64402;44.708;37.644;2023-07-24T15:18:41;3.25;;;0.88;;
75785;SDS011;64402;44.708;37.644;2023-07-24T15:21:07;9.25;;;1.13;;
75785;SDS011;64402;44.708;37.644;2023-07-24T15:23:34;5.53;;;1.10;;
75785;SDS011;64402;44.708;37.644;2023-07-24T15:28:26;3.13;;;1.00;;
75785;SDS011;64402;44.708;37.644;2023-07-24T15:30:53;2.95;;;0.98;;